createdAt,value
2024-01-05T00:01:30.073Z,87.99
2024-01-05T00:03:58.349Z,88.26
2024-01-05T00:06:26.553Z,88.29
2024-01-05T00:08:54.738Z,88.14
2024-01-05T00:11:22.826Z,88.99
2024-01-05T00:13:51.002Z,89.15
2024-01-05T00:16:20.753Z,89.20
2024-01-05T00:18:49.071Z,88.50
2024-01-05T00:21:24.051Z,88.16
2024-01-05T00:23:53.144Z,88.57
2024-01-05T00:26:21.661Z,88.64
2024-01-05T00:28:51.578Z,88.58
2024-01-05T00:31:21.267Z,89.72
2024-01-05T00:33:49.617Z,88.58
2024-01-05T00:36:17.829Z,88.87
2024-01-05T00:38:48.851Z,88.17
2024-01-05T00:41:17.599Z,88.59
2024-01-05T00:43:45.694Z,88.77
2024-01-05T00:46:13.711Z,89.09
2024-01-05T00:48:43.319Z,88.67
2024-01-05T00:51:11.595Z,88.91
2024-01-05T00:53:39.689Z,88.74
2024-01-05T00:56:08.124Z,88.33
2024-01-05T00:58:36.376Z,88.00
2024-01-05T01:01:04.590Z,88.38
2024-01-05T01:03:32.740Z,88.81
2024-01-05T01:06:02.233Z,89.15
2024-01-05T01:08:30.279Z,88.93
2024-01-05T01:10:58.354Z,88.04
2024-01-05T01:13:26.372Z,88.76
2024-01-05T01:15:54.462Z,87.88
2024-01-05T01:18:21.590Z,88.37
2024-01-05T01:20:49.868Z,87.77
2024-01-05T01:23:19.731Z,87.64
2024-01-05T01:25:47.845Z,88.42
2024-01-05T01:28:15.859Z,88.42
2024-01-05T01:30:43.948Z,88.21
2024-01-05T01:33:12.154Z,88.30
2024-01-05T01:35:40.246Z,88.33
2024-01-05T01:38:08.313Z,88.16
2024-01-05T01:40:37.933Z,87.86
2024-01-05T01:43:06.135Z,88.04
2024-01-05T01:45:34.270Z,88.69
2024-01-05T01:48:02.547Z,89.01
2024-01-05T01:50:30.638Z,88.28
2024-01-05T01:52:58.684Z,88.96
2024-01-05T01:55:27.456Z,88.75
2024-01-05T01:57:56.991Z,88.73
2024-01-05T02:00:25.217Z,88.55
2024-01-05T02:02:54.168Z,88.24
2024-01-05T02:05:22.307Z,88.58
2024-01-05T02:07:50.463Z,87.89
2024-01-05T02:10:19.434Z,87.99
2024-01-05T02:12:47.446Z,87.95
2024-01-05T02:15:18.615Z,88.69
2024-01-05T02:17:46.950Z,87.89
2024-01-05T02:20:15.133Z,87.86
2024-01-05T02:22:46.431Z,88.74
2024-01-05T02:25:15.894Z,87.89
2024-01-05T02:27:43.930Z,88.21
2024-01-05T02:30:13.505Z,87.84
2024-01-05T02:32:41.593Z,88.39
2024-01-05T02:35:10.127Z,88.33
2024-01-05T02:37:38.170Z,87.87
2024-01-05T02:40:07.434Z,87.78
2024-01-05T02:42:36.873Z,88.57
2024-01-05T02:45:05.539Z,88.04
2024-01-05T02:47:33.684Z,88.53
2024-01-05T02:50:01.708Z,89.11
2024-01-05T02:52:29.777Z,88.86
2024-01-05T02:54:57.791Z,89.19
2024-01-05T02:57:26.685Z,88.77
2024-01-05T02:59:57.124Z,89.04
2024-01-05T03:02:25.209Z,89.39
2024-01-05T03:04:53.372Z,89.55
2024-01-05T03:07:21.469Z,89.09
2024-01-05T03:09:49.485Z,89.30
2024-01-05T03:12:18.133Z,89.38
2024-01-05T03:14:46.279Z,88.89
2024-01-05T03:17:16.678Z,89.46
2024-01-05T03:19:44.743Z,89.34
2024-01-05T03:22:13.338Z,89.03
2024-01-05T03:24:41.607Z,89.05
2024-01-05T03:27:14.215Z,88.94
2024-01-05T03:29:42.325Z,89.67
2024-01-05T03:32:10.607Z,89.53
2024-01-05T03:34:40.521Z,89.45
2024-01-05T03:37:08.596Z,90.04
2024-01-05T03:39:36.737Z,89.74
2024-01-05T03:42:05.106Z,90.37
2024-01-05T03:44:33.196Z,90.43
2024-01-05T03:47:01.233Z,90.55
2024-01-05T03:49:29.321Z,91.16
2024-01-05T03:51:58.795Z,90.80
2024-01-05T03:54:26.895Z,90.68
2024-01-05T03:56:54.994Z,91.32
2024-01-05T03:59:23.044Z,91.05
2024-01-05T04:01:51.475Z,90.95
2024-01-05T04:04:19.635Z,90.99
2024-01-05T04:06:48.176Z,90.96
2024-01-05T04:09:17.836Z,91.31
2024-01-05T04:11:45.903Z,91.44
2024-01-05T04:14:13.957Z,91.43
2024-01-05T04:16:42.346Z,91.22
2024-01-05T04:19:10.822Z,91.64
2024-01-05T04:21:39.022Z,91.96
2024-01-05T04:24:07.373Z,91.32
2024-01-05T04:26:37.077Z,91.63
2024-01-05T04:29:05.142Z,91.27
2024-01-05T04:31:33.313Z,91.89
2024-01-05T04:34:01.488Z,91.42
2024-01-05T04:36:29.739Z,91.75
2024-01-05T04:38:57.790Z,91.72
2024-01-05T04:41:26.236Z,91.78
2024-01-05T04:43:55.675Z,91.56
2024-01-05T04:46:23.737Z,92.08
2024-01-05T04:48:51.827Z,91.92
2024-01-05T04:51:19.968Z,91.67
2024-01-05T04:53:50.292Z,91.36
2024-01-05T04:56:18.480Z,91.37
2024-01-05T04:58:46.550Z,91.38
2024-01-05T05:01:16.058Z,91.39
2024-01-05T05:03:44.254Z,91.95
2024-01-05T05:06:12.611Z,91.70
2024-01-05T05:08:40.745Z,91.46
2024-01-05T05:11:08.925Z,91.65
2024-01-05T05:13:36.918Z,91.60
2024-01-05T05:16:05.236Z,91.37
2024-01-05T05:18:34.812Z,91.66
2024-01-05T05:21:03.414Z,91.69
2024-01-05T05:23:31.494Z,91.42
2024-01-05T05:25:59.681Z,91.43
2024-01-05T05:28:27.819Z,91.32
2024-01-05T05:30:56.002Z,91.48
2024-01-05T05:33:24.386Z,91.46
2024-01-05T05:35:53.982Z,92.05
2024-01-05T05:38:22.024Z,91.69
2024-01-05T05:40:50.060Z,91.56
2024-01-05T05:43:18.875Z,92.00
2024-01-05T05:45:46.896Z,91.50
2024-01-05T05:48:15.295Z,91.96
2024-01-05T05:50:43.599Z,91.98
2024-01-05T05:53:13.113Z,91.63
2024-01-05T05:55:41.186Z,91.65
2024-01-05T05:58:09.739Z,91.70
2024-01-05T06:00:38.165Z,91.84
2024-01-05T06:03:10.052Z,91.15
2024-01-05T06:05:39.612Z,91.78
2024-01-05T06:08:08.192Z,91.32
2024-01-05T06:10:37.605Z,91.85
2024-01-05T06:13:05.864Z,90.98
2024-01-05T06:15:34.029Z,91.78
2024-01-05T06:18:02.223Z,91.75
2024-01-05T06:20:30.309Z,90.91
2024-01-05T06:22:58.415Z,91.37
2024-01-05T06:25:26.445Z,91.63
2024-01-05T06:27:56.003Z,91.44
2024-01-05T06:30:24.089Z,91.77
2024-01-05T06:32:52.190Z,91.82
2024-01-05T06:35:20.271Z,91.67
2024-01-05T06:37:48.406Z,92.19
2024-01-05T06:40:16.591Z,92.08
2024-01-05T06:42:45.064Z,91.85
2024-01-05T06:45:14.754Z,91.40
2024-01-05T06:47:42.800Z,91.52
2024-01-05T06:50:11.182Z,91.23
2024-01-05T06:52:39.314Z,91.44
2024-01-05T06:55:08.197Z,91.27
2024-01-05T06:57:37.113Z,91.77
2024-01-05T07:00:05.471Z,91.30
2024-01-05T07:02:34.938Z,90.88
2024-01-05T07:05:03.182Z,91.09
2024-01-05T07:07:31.329Z,91.32
2024-01-05T07:09:59.485Z,90.45
2024-01-05T07:12:29.917Z,90.55
2024-01-05T07:14:58.051Z,90.69
2024-01-05T07:17:26.181Z,91.10
2024-01-05T07:19:55.693Z,90.56
2024-01-05T07:22:23.697Z,90.84
2024-01-05T07:24:51.858Z,90.41
2024-01-05T07:27:19.940Z,90.98
2024-01-05T07:29:48.300Z,91.01
2024-01-05T07:32:16.498Z,90.75
2024-01-05T07:34:44.582Z,90.54
2024-01-05T07:37:14.160Z,90.63
2024-01-05T07:39:42.217Z,90.64
2024-01-05T07:42:10.293Z,90.83
2024-01-05T07:44:38.338Z,90.62
2024-01-05T07:47:06.663Z,90.64
2024-01-05T07:49:35.322Z,90.55
2024-01-05T07:52:03.798Z,90.96
2024-01-05T07:54:33.238Z,90.51
2024-01-05T07:57:01.338Z,91.15
2024-01-05T07:59:29.437Z,90.48
2024-01-05T08:01:57.459Z,90.89
2024-01-05T08:04:25.612Z,90.96
2024-01-05T08:06:53.677Z,91.00
2024-01-05T08:09:21.750Z,90.28
2024-01-05T08:11:51.194Z,90.37
2024-01-05T08:14:19.228Z,90.25
2024-01-05T08:16:47.258Z,90.83
2024-01-05T08:19:16.011Z,91.00
2024-01-05T08:21:44.404Z,90.82
2024-01-05T08:24:12.967Z,90.29
2024-01-05T08:26:41.066Z,90.67
2024-01-05T08:29:10.498Z,89.94
2024-01-05T08:31:38.696Z,89.79
2024-01-05T08:34:08.106Z,90.38
2024-01-05T08:36:36.401Z,90.25
2024-01-05T08:39:06.543Z,90.61
2024-01-05T08:41:34.836Z,90.17
2024-01-05T08:44:03.018Z,90.02
2024-01-05T08:46:33.375Z,89.96
2024-01-05T08:49:01.872Z,90.01
2024-01-05T08:51:30.021Z,90.54
2024-01-05T08:54:00.154Z,90.67
2024-01-05T08:56:28.252Z,90.52
2024-01-05T08:58:56.283Z,90.39
2024-01-05T09:01:24.374Z,90.21
2024-01-05T09:03:53.940Z,89.98
2024-01-05T09:06:22.099Z,90.20
2024-01-05T09:08:50.393Z,89.94
2024-01-05T09:11:18.633Z,90.40
2024-01-05T09:13:46.930Z,89.90
2024-01-05T09:16:14.973Z,90.29
2024-01-05T09:18:43.660Z,90.15
2024-01-05T09:21:14.460Z,90.25
2024-01-05T09:23:42.786Z,90.17
2024-01-05T09:26:15.822Z,90.61
2024-01-05T09:28:44.166Z,90.06
2024-01-05T09:31:12.670Z,90.26
2024-01-05T09:33:40.946Z,90.10
2024-01-05T09:36:09.764Z,90.42
2024-01-05T09:38:39.457Z,90.30
2024-01-05T09:41:13.582Z,89.98
2024-01-05T09:43:43.003Z,89.78
2024-01-05T09:46:11.368Z,89.85
2024-01-05T09:48:47.690Z,90.27
2024-01-05T09:51:19.566Z,90.60
2024-01-05T09:53:49.038Z,90.53
2024-01-05T09:56:17.922Z,90.45
2024-01-05T09:58:46.683Z,90.64
2024-01-05T10:01:21.000Z,90.94
2024-01-05T10:03:51.647Z,90.82
2024-01-05T10:06:19.927Z,90.64
2024-01-05T10:08:49.495Z,91.19
2024-01-05T10:11:31.693Z,91.17
2024-01-05T10:14:02.447Z,90.99
2024-01-05T10:16:35.561Z,90.73
2024-01-05T10:19:23.345Z,90.98
2024-01-05T10:21:51.577Z,90.62
2024-01-05T10:24:25.045Z,90.45
2024-01-05T10:27:03.351Z,91.07
2024-01-05T10:29:33.622Z,90.04
2024-01-05T10:32:12.688Z,90.21
2024-01-05T10:34:42.310Z,91.09
2024-01-05T10:37:10.803Z,90.71
2024-01-05T10:39:40.592Z,90.56
2024-01-05T10:42:22.439Z,90.28
2024-01-05T10:44:52.426Z,90.82
2024-01-05T10:47:21.882Z,90.30
2024-01-05T10:49:51.734Z,90.06
2024-01-05T10:52:21.032Z,90.04
2024-01-05T10:54:52.923Z,90.06
2024-01-05T10:57:21.670Z,89.99
2024-01-05T10:59:51.124Z,90.70
2024-01-05T11:02:25.545Z,90.08
2024-01-05T11:05:01.032Z,89.60
2024-01-05T11:07:34.795Z,90.06
2024-01-05T11:10:19.153Z,89.75
2024-01-05T11:13:01.962Z,90.06
2024-01-05T11:15:42.935Z,90.07
2024-01-05T11:18:31.710Z,90.08
2024-01-05T11:21:09.893Z,89.42
2024-01-05T11:23:38.786Z,89.84
2024-01-05T11:26:08.259Z,90.21
2024-01-05T11:28:37.963Z,89.72
2024-01-05T11:31:06.446Z,89.82
2024-01-05T11:33:48.420Z,89.81
2024-01-05T11:36:58.120Z,89.64
2024-01-05T11:39:46.311Z,89.94
2024-01-05T11:45:13.617Z,90.38
2024-01-05T11:47:42.072Z,90.51
2024-01-05T11:50:27.538Z,90.12
2024-01-05T11:53:13.166Z,90.13
2024-01-05T11:55:47.490Z,90.35
2024-01-05T11:58:18.994Z,90.62
2024-01-05T12:00:48.966Z,90.56
2024-01-05T12:03:17.678Z,89.53
2024-01-05T12:05:49.789Z,89.47
2024-01-05T12:08:18.982Z,89.48
2024-01-05T12:10:47.705Z,89.57
2024-01-05T12:13:15.768Z,89.76
2024-01-05T12:15:52.692Z,89.76
2024-01-05T12:18:34.577Z,89.90
2024-01-05T12:21:08.435Z,89.68
2024-01-05T12:23:37.265Z,90.24
2024-01-05T12:26:06.998Z,90.23
2024-01-05T12:28:36.271Z,89.82
2024-01-05T12:31:05.913Z,89.94
2024-01-05T12:33:37.346Z,89.88
2024-01-05T12:36:11.065Z,89.10
2024-01-05T12:38:39.616Z,89.72
2024-01-05T12:41:09.618Z,89.61
2024-01-05T12:43:38.138Z,89.76
2024-01-05T12:46:07.557Z,89.57
2024-01-05T12:48:37.320Z,89.60
2024-01-05T12:51:05.543Z,89.89
2024-01-05T12:53:33.763Z,89.10
2024-01-05T12:56:09.591Z,88.82
2024-01-05T12:58:41.493Z,88.97
2024-01-05T13:01:10.586Z,89.60
2024-01-05T13:03:40.078Z,89.70
2024-01-05T13:06:11.750Z,88.60
2024-01-05T13:08:39.841Z,89.07
2024-01-05T13:11:08.917Z,89.32
2024-01-05T13:13:36.948Z,89.57
2024-01-05T13:16:05.266Z,89.32
2024-01-05T13:18:33.504Z,89.75
2024-01-05T13:21:03.100Z,88.96
2024-01-05T13:23:31.988Z,89.20
2024-01-05T13:26:00.058Z,89.87
2024-01-05T13:28:28.210Z,89.67
2024-01-05T13:30:56.343Z,89.75
2024-01-05T13:33:24.648Z,90.14
2024-01-05T13:35:52.692Z,89.64
2024-01-05T13:38:23.404Z,89.78
2024-01-05T13:40:51.410Z,89.77
2024-01-05T13:43:19.450Z,90.00
2024-01-05T13:45:47.538Z,90.06
2024-01-05T13:48:15.703Z,90.22
2024-01-05T13:50:43.811Z,90.33
2024-01-05T13:53:15.390Z,90.04
2024-01-05T13:55:44.915Z,90.07
2024-01-05T13:58:12.955Z,89.80
2024-01-05T14:00:41.138Z,90.75
2024-01-05T14:03:10.859Z,90.28
2024-01-05T14:05:39.336Z,90.67
2024-01-05T14:08:07.922Z,90.37
2024-01-05T14:10:35.940Z,90.35
2024-01-05T14:13:05.709Z,91.03
2024-01-05T14:15:33.750Z,90.64
2024-01-05T14:18:04.376Z,90.75
2024-01-05T14:20:34.928Z,90.40
2024-01-05T14:23:04.186Z,90.61
2024-01-05T14:25:35.012Z,90.84
2024-01-05T14:28:03.611Z,90.39
2024-01-05T14:30:33.128Z,90.29
2024-01-05T14:33:01.531Z,90.93
2024-01-05T14:35:30.252Z,90.85
2024-01-05T14:37:58.290Z,90.28
2024-01-05T14:40:26.884Z,90.58
2024-01-05T14:42:54.941Z,90.46
2024-01-05T14:45:25.226Z,90.78
2024-01-05T14:47:54.897Z,90.66
2024-01-05T14:50:23.236Z,90.97
2024-01-05T14:52:56.091Z,90.55
2024-01-05T14:55:31.930Z,90.54
2024-01-05T14:58:02.217Z,90.98
2024-01-05T15:00:30.332Z,91.17
2024-01-05T15:03:00.822Z,91.10
2024-01-05T15:05:28.961Z,90.53
2024-01-05T15:07:57.014Z,90.00
2024-01-05T15:10:25.129Z,90.54
2024-01-05T15:12:53.667Z,90.33
2024-01-05T15:15:22.165Z,90.50
2024-01-05T15:17:51.306Z,90.69
2024-01-05T15:20:20.813Z,90.70
2024-01-05T15:22:48.827Z,90.85
2024-01-05T15:25:16.958Z,90.88
2024-01-05T15:27:45.017Z,90.97
2024-01-05T15:30:14.346Z,90.74
2024-01-05T15:32:42.493Z,91.44
2024-01-05T15:35:10.706Z,90.99
2024-01-05T15:37:40.677Z,90.89
2024-01-05T15:40:09.749Z,91.27
2024-01-05T15:42:37.932Z,90.91
2024-01-05T15:45:07.697Z,91.61
2024-01-05T15:47:35.942Z,91.77
2024-01-05T15:50:04.140Z,91.48
2024-01-05T15:52:32.944Z,91.54
2024-01-05T15:55:02.375Z,91.69
2024-01-05T15:57:30.425Z,91.72
2024-01-05T15:59:58.479Z,91.16
2024-01-05T16:02:26.665Z,91.69
2024-01-05T16:04:57.562Z,91.40
2024-01-05T16:07:26.371Z,92.21
2024-01-05T16:09:54.479Z,92.14
2024-01-05T16:12:24.751Z,91.98
2024-01-05T16:14:52.782Z,91.78
2024-01-05T16:17:20.836Z,91.26
2024-01-05T16:19:48.916Z,92.00
2024-01-05T16:22:17.035Z,91.62
2024-01-05T16:24:45.114Z,91.45
2024-01-05T16:27:13.254Z,92.14
2024-01-05T16:29:42.685Z,91.65
2024-01-05T16:32:10.704Z,91.43
2024-01-05T16:34:38.882Z,91.45
2024-01-05T16:37:07.901Z,91.44
2024-01-05T16:39:36.023Z,91.45
2024-01-05T16:42:04.139Z,91.81
2024-01-05T16:44:32.188Z,91.36
2024-01-05T16:47:01.623Z,91.01
2024-01-05T16:49:29.814Z,91.62
2024-01-05T16:51:58.718Z,91.29
2024-01-05T16:54:26.854Z,91.74
2024-01-05T16:56:55.060Z,90.66
2024-01-05T16:59:24.331Z,91.05
2024-01-05T17:01:52.427Z,90.80
2024-01-05T17:04:23.759Z,91.40
2024-01-05T17:06:53.553Z,91.29
2024-01-05T17:09:21.930Z,91.28
2024-01-05T17:11:50.050Z,91.59
2024-01-05T17:14:18.084Z,91.60
2024-01-05T17:16:48.400Z,91.42
2024-01-05T17:19:16.584Z,91.18
2024-01-05T17:21:48.954Z,91.45
2024-01-05T17:24:17.212Z,91.54
2024-01-05T17:26:45.285Z,91.92
2024-01-05T17:29:13.342Z,91.58
2024-01-05T17:31:41.425Z,92.22
2024-01-05T17:34:09.703Z,92.25
2024-01-05T17:36:40.787Z,91.91
2024-01-05T17:39:10.400Z,91.65
2024-01-05T17:41:40.231Z,91.80
2024-01-05T17:44:08.409Z,91.91
2024-01-05T17:46:39.163Z,91.68
2024-01-05T17:49:08.379Z,92.24
2024-01-05T17:51:37.611Z,91.81
2024-01-05T17:54:05.763Z,91.54
2024-01-05T17:56:36.675Z,91.35
2024-01-05T17:59:05.253Z,91.40
2024-01-05T18:01:33.784Z,91.57
2024-01-05T18:04:02.272Z,91.24
2024-01-05T18:06:30.538Z,91.11
2024-01-05T18:08:59.607Z,91.36
2024-01-05T18:11:28.657Z,91.48
2024-01-05T18:13:59.906Z,91.31
2024-01-05T18:16:29.098Z,91.91
2024-01-05T18:18:59.133Z,91.64
2024-01-05T18:21:28.918Z,91.65
2024-01-05T18:24:00.405Z,91.71
2024-01-05T18:26:29.615Z,91.84
2024-01-05T18:29:03.908Z,91.48
2024-01-05T18:31:38.754Z,92.05
2024-01-05T18:34:08.375Z,92.21
2024-01-05T18:36:37.785Z,91.65
2024-01-05T18:39:06.709Z,91.57
2024-01-05T18:41:35.781Z,91.50
2024-01-05T18:44:05.611Z,91.57
2024-01-05T18:46:33.662Z,91.13
2024-01-05T18:49:03.074Z,91.54
2024-01-05T18:51:31.280Z,91.82
2024-01-05T18:54:00.332Z,91.81
2024-01-05T18:56:28.352Z,91.45
2024-01-05T18:58:56.384Z,91.48
2024-01-05T19:01:26.257Z,91.30
2024-01-05T19:03:54.481Z,90.79
2024-01-05T19:06:23.239Z,92.07
2024-01-05T19:08:51.300Z,91.62
2024-01-05T19:11:19.360Z,90.79
2024-01-05T19:13:47.378Z,91.13
2024-01-05T19:16:17.593Z,91.23
2024-01-05T19:18:47.399Z,91.17
2024-01-05T19:21:15.788Z,91.24
2024-01-05T19:23:44.313Z,91.10
2024-01-05T19:26:15.285Z,91.69
2024-01-05T19:28:43.300Z,91.38
2024-01-05T19:31:11.463Z,91.21
2024-01-05T19:33:39.610Z,91.55
2024-01-05T19:36:13.880Z,91.28
2024-01-05T19:38:43.311Z,91.45
2024-01-05T19:41:11.428Z,90.76
2024-01-05T19:43:40.283Z,91.25
2024-01-05T19:46:08.612Z,90.83
2024-01-05T19:48:37.251Z,91.20
2024-01-05T19:51:12.525Z,91.08
2024-01-05T19:53:42.792Z,91.40
2024-01-05T19:56:10.834Z,91.26
2024-01-05T19:58:38.884Z,91.63
2024-01-05T20:01:07.032Z,91.34
2024-01-05T20:03:35.542Z,91.42
2024-01-05T20:06:04.604Z,91.31
2024-01-05T20:08:32.809Z,91.53
2024-01-05T20:11:02.379Z,91.46
2024-01-05T20:13:30.466Z,91.36
2024-01-05T20:15:58.603Z,91.36
2024-01-05T20:18:26.883Z,91.36
2024-01-05T20:20:54.970Z,91.00
2024-01-05T20:23:23.025Z,91.19
2024-01-05T20:25:51.958Z,90.79
2024-01-05T20:28:21.372Z,90.72
2024-01-05T20:30:49.566Z,91.51
2024-01-05T20:33:17.884Z,90.76
2024-01-05T20:35:46.333Z,90.79
2024-01-05T20:38:14.908Z,91.26
2024-01-05T20:40:43.260Z,91.29
2024-01-05T20:43:11.313Z,91.01
2024-01-05T20:45:41.870Z,90.95
2024-01-05T20:48:10.247Z,91.05
2024-01-05T20:50:38.451Z,90.76
2024-01-05T20:53:11.673Z,91.07
2024-01-05T20:55:40.823Z,90.88
2024-01-05T20:58:09.170Z,90.53
2024-01-05T21:00:37.322Z,91.52
2024-01-05T21:03:07.411Z,91.74
2024-01-05T21:05:36.232Z,90.84
2024-01-05T21:08:05.209Z,91.11
2024-01-05T21:10:33.601Z,90.94
2024-01-05T21:13:01.741Z,90.63
2024-01-05T21:15:29.810Z,90.78
2024-01-05T21:17:57.925Z,90.97
2024-01-05T21:20:27.366Z,90.86
2024-01-05T21:22:56.547Z,91.05
2024-01-05T21:25:26.732Z,90.56
2024-01-05T21:27:54.828Z,90.94
2024-01-05T21:30:23.338Z,90.83
2024-01-05T21:32:51.686Z,91.28
2024-01-05T21:35:19.800Z,91.06
2024-01-05T21:37:49.235Z,91.44
2024-01-05T21:40:17.917Z,91.36
2024-01-05T21:42:48.298Z,91.05
2024-01-05T21:45:18.759Z,91.06
2024-01-05T21:47:47.868Z,91.00
2024-01-05T21:50:16.192Z,90.97
2024-01-05T21:52:44.225Z,91.14
2024-01-05T21:55:14.489Z,90.74
2024-01-05T21:57:42.585Z,90.31
2024-01-05T22:00:11.667Z,90.75
2024-01-05T22:02:39.673Z,91.14
2024-01-05T22:05:08.225Z,91.60
2024-01-05T22:07:36.250Z,91.72
2024-01-05T22:10:05.541Z,91.36
2024-01-05T22:12:35.583Z,91.56
2024-01-05T22:15:03.656Z,91.20
2024-01-05T22:17:31.880Z,91.10
2024-01-05T22:20:00.212Z,91.15
2024-01-05T22:22:28.448Z,91.16
2024-01-05T22:24:57.110Z,91.32
2024-01-05T22:27:26.568Z,91.82
2024-01-05T22:29:56.105Z,91.01
2024-01-05T22:32:24.156Z,91.54
2024-01-05T22:34:52.326Z,91.12
2024-01-05T22:37:21.589Z,91.75
2024-01-05T22:39:50.006Z,91.22
2024-01-05T22:42:18.130Z,90.99
2024-01-05T22:44:46.323Z,91.41
2024-01-05T22:47:15.715Z,91.81
2024-01-05T22:49:43.867Z,92.21
2024-01-05T22:52:11.931Z,91.81
2024-01-05T22:54:41.214Z,92.11
2024-01-05T22:57:10.822Z,92.67
2024-01-05T22:59:38.886Z,92.38
2024-01-05T23:02:06.986Z,92.57
2024-01-05T23:04:39.777Z,91.78
2024-01-05T23:07:08.091Z,92.06
2024-01-05T23:09:36.527Z,92.12
2024-01-05T23:12:04.891Z,91.86
2024-01-05T23:14:33.022Z,92.36
2024-01-05T23:17:01.429Z,91.93
2024-01-05T23:19:29.494Z,92.02
2024-01-05T23:21:58.953Z,91.70
2024-01-05T23:24:28.690Z,92.19
2024-01-05T23:26:57.950Z,92.07
2024-01-05T23:29:25.986Z,91.92
2024-01-05T23:31:54.174Z,92.18
2024-01-05T23:34:22.376Z,92.30
2024-01-05T23:36:52.591Z,92.23
2024-01-05T23:39:22.101Z,92.16
2024-01-05T23:41:50.159Z,92.13
2024-01-05T23:44:18.203Z,91.97
2024-01-05T23:46:46.342Z,91.63
2024-01-05T23:49:14.528Z,92.22
2024-01-05T23:51:42.662Z,92.19
2024-01-05T23:54:10.745Z,92.35
2024-01-05T23:56:40.187Z,92.80
2024-01-05T23:59:08.270Z,92.72
